createdAt,value
2023-03-16T00:00:05.802Z,17.30
2023-03-16T00:00:15.937Z,11.90
2023-03-16T00:00:26.157Z,11.10
2023-03-16T00:00:35.830Z,10.80
2023-03-16T00:00:45.865Z,10.50
2023-03-16T00:00:55.771Z,10.40
2023-03-16T00:01:05.816Z,10.40
2023-03-16T00:01:15.852Z,11.50
2023-03-16T00:01:25.772Z,13.30
2023-03-16T00:01:35.859Z,11.00
2023-03-16T00:01:45.829Z,11.70
2023-03-16T00:01:55.927Z,12.80
2023-03-16T00:02:05.819Z,13.60
2023-03-16T00:02:15.875Z,12.20
2023-03-16T00:02:25.885Z,15.30
2023-03-16T00:02:35.757Z,16.70
2023-03-16T00:02:45.834Z,18.60
2023-03-16T00:02:55.835Z,15.00
2023-03-16T00:03:05.869Z,10.80
2023-03-16T00:03:15.927Z,11.00
2023-03-16T00:03:25.862Z,11.50
2023-03-16T00:03:35.856Z,11.80
2023-03-16T00:03:45.760Z,11.50
2023-03-16T00:03:55.783Z,10.50
2023-03-16T00:04:05.823Z,10.70
2023-03-16T00:04:15.751Z,10.70
2023-03-16T00:04:25.763Z,10.60
2023-03-16T00:04:35.816Z,10.30
2023-03-16T00:04:45.761Z,10.40
2023-03-16T00:04:55.762Z,11.70
2023-03-16T00:05:05.802Z,11.10
2023-03-16T00:05:15.762Z,11.80
2023-03-16T00:05:25.789Z,10.00
2023-03-16T00:05:35.762Z,11.00
2023-03-16T00:05:46.280Z,10.60
2023-03-16T00:05:55.748Z,10.70
2023-03-16T00:06:05.760Z,10.60
2023-03-16T00:06:15.772Z,10.90
2023-03-16T00:06:25.923Z,11.20
2023-03-16T00:06:35.739Z,10.70
2023-03-16T00:06:45.780Z,10.30
2023-03-16T00:06:55.820Z,10.30
2023-03-16T00:07:05.746Z,10.20
2023-03-16T00:07:15.782Z,10.40
2023-03-16T00:07:25.822Z,10.90
2023-03-16T00:07:35.753Z,11.20
2023-03-16T00:07:45.779Z,10.60
2023-03-16T00:07:55.853Z,10.60
2023-03-16T00:08:05.753Z,10.80
2023-03-16T00:08:15.766Z,11.30
2023-03-16T00:08:25.931Z,11.00
2023-03-16T00:08:35.761Z,11.30
2023-03-16T00:08:45.793Z,11.40
2023-03-16T00:08:55.766Z,11.50
2023-03-16T00:09:05.761Z,16.40
2023-03-16T00:09:15.809Z,17.00
2023-03-16T00:09:25.832Z,14.70
2023-03-16T00:09:35.761Z,11.90
2023-03-16T00:09:45.755Z,11.10
2023-03-16T00:09:55.756Z,11.40
2023-03-16T00:10:05.769Z,12.20
2023-03-16T00:10:15.810Z,18.00
2023-03-16T00:10:25.981Z,18.20
2023-03-16T00:10:35.774Z,12.10
2023-03-16T00:10:45.809Z,11.20
2023-03-16T00:10:55.735Z,11.50
2023-03-16T00:11:05.770Z,11.80
2023-03-16T00:11:16.319Z,14.10
2023-03-16T00:11:25.740Z,12.20
2023-03-16T00:11:35.777Z,11.60
2023-03-16T00:11:45.814Z,12.20
2023-03-16T00:11:55.754Z,12.00
2023-03-16T00:12:05.802Z,13.20
2023-03-16T00:12:15.852Z,11.20
2023-03-16T00:12:25.741Z,10.70
2023-03-16T00:12:35.749Z,10.30
2023-03-16T00:12:45.730Z,9.90
2023-03-16T00:12:55.749Z,10.70
2023-03-16T00:13:05.793Z,11.90
2023-03-16T00:13:15.731Z,11.80
2023-03-16T00:13:25.753Z,11.70
2023-03-16T00:13:35.797Z,10.30
2023-03-16T00:13:45.727Z,10.30
2023-03-16T00:13:55.810Z,10.10
2023-03-16T00:14:05.796Z,9.80
2023-03-16T00:14:15.722Z,10.20
2023-03-16T00:14:25.728Z,10.30
2023-03-16T00:14:36.298Z,12.50
2023-03-16T00:14:45.717Z,16.80
2023-03-16T00:14:55.718Z,18.10
2023-03-16T00:15:05.787Z,15.60
2023-03-16T00:15:15.733Z,13.70
2023-03-16T00:15:25.737Z,11.40
2023-03-16T00:15:35.708Z,11.20
2023-03-16T00:15:45.741Z,11.20
2023-03-16T00:15:55.814Z,11.00
2023-03-16T00:16:05.845Z,13.10
2023-03-16T00:16:15.843Z,14.10
2023-03-16T00:16:25.768Z,13.50
2023-03-16T00:16:35.738Z,15.00
2023-03-16T00:16:45.779Z,13.70
2023-03-16T00:16:55.772Z,15.70
2023-03-16T00:17:06.297Z,15.10
2023-03-16T00:17:15.839Z,13.50
2023-03-16T00:17:25.700Z,16.70
2023-03-16T00:17:35.710Z,14.70
2023-03-16T00:17:45.715Z,14.80
2023-03-16T00:17:55.785Z,13.40
2023-03-16T00:18:05.722Z,13.00
2023-03-16T00:18:15.752Z,17.10
2023-03-16T00:18:25.704Z,12.30
2023-03-16T00:18:36.328Z,12.60
2023-03-16T00:18:45.781Z,12.80
2023-03-16T00:18:55.703Z,14.70
2023-03-16T00:19:05.746Z,13.30
2023-03-16T00:19:15.744Z,12.10
2023-03-16T00:19:25.703Z,11.50
2023-03-16T00:19:35.709Z,11.90
2023-03-16T00:19:45.782Z,12.20
2023-03-16T00:19:55.802Z,12.30
2023-03-16T00:20:05.927Z,17.50
2023-03-16T00:20:15.754Z,15.40
2023-03-16T00:20:26.590Z,13.40
2023-03-16T00:20:35.709Z,11.30
2023-03-16T00:20:45.729Z,11.40
2023-03-16T00:20:55.712Z,11.20
2023-03-16T00:21:05.748Z,11.70
2023-03-16T00:21:15.686Z,11.30
2023-03-16T00:21:25.710Z,15.00
2023-03-16T00:21:35.775Z,18.20
2023-03-16T00:21:45.683Z,18.40
2023-03-16T00:21:55.706Z,15.30
2023-03-16T00:22:05.683Z,12.30
2023-03-16T00:22:15.697Z,11.70
2023-03-16T00:22:25.722Z,14.10
2023-03-16T00:22:35.727Z,11.10
2023-03-16T00:22:46.319Z,16.40
2023-03-16T00:22:55.704Z,13.60
2023-03-16T00:23:05.728Z,16.30
2023-03-16T00:23:15.681Z,11.80
2023-03-16T00:23:25.691Z,12.00
2023-03-16T00:23:35.712Z,12.20
2023-03-16T00:23:45.683Z,13.60
2023-03-16T00:23:55.733Z,11.70
2023-03-16T00:24:05.677Z,11.60
2023-03-16T00:24:15.688Z,12.50
2023-03-16T00:24:25.706Z,15.30
2023-03-16T00:24:35.686Z,15.10
2023-03-16T00:24:45.683Z,12.80
2023-03-16T00:24:55.723Z,12.10
2023-03-16T00:25:05.675Z,11.00
2023-03-16T00:25:15.678Z,11.10
2023-03-16T00:25:25.760Z,10.90
2023-03-16T00:25:35.778Z,11.10
2023-03-16T00:25:45.699Z,11.10
2023-03-16T00:25:55.741Z,12.50
2023-03-16T00:26:05.671Z,12.70
2023-03-16T00:26:15.708Z,13.80
2023-03-16T00:26:25.738Z,11.50
2023-03-16T00:26:36.297Z,15.70
2023-03-16T00:26:45.695Z,11.60
2023-03-16T00:26:55.683Z,10.70
2023-03-16T00:27:05.694Z,10.00
2023-03-16T00:27:15.733Z,10.20
2023-03-16T00:27:25.659Z,10.90
2023-03-16T00:27:35.682Z,11.20
2023-03-16T00:27:45.705Z,12.90
2023-03-16T00:27:55.673Z,17.00
2023-03-16T00:28:05.697Z,13.50
2023-03-16T00:28:15.715Z,10.20
2023-03-16T00:28:25.663Z,11.20
2023-03-16T00:28:35.691Z,11.70
2023-03-16T00:28:45.726Z,11.60
2023-03-16T00:28:55.655Z,9.90
2023-03-16T00:29:05.780Z,9.40
2023-03-16T00:29:15.707Z,11.40
2023-03-16T00:29:25.651Z,11.40
2023-03-16T00:29:35.679Z,12.10
2023-03-16T00:29:45.720Z,19.80
2023-03-16T00:29:56.177Z,22.70
2023-03-16T00:30:05.662Z,20.30
2023-03-16T00:30:15.644Z,10.70
2023-03-16T00:30:26.087Z,11.30
2023-03-16T00:30:35.688Z,11.60
2023-03-16T00:30:45.707Z,10.70
2023-03-16T00:30:55.702Z,11.10
2023-03-16T00:31:05.665Z,9.90
2023-03-16T00:31:15.690Z,14.10
2023-03-16T00:31:25.694Z,13.70
2023-03-16T00:31:35.708Z,13.70
2023-03-16T00:31:46.250Z,10.70
2023-03-16T00:31:55.736Z,9.60
2023-03-16T00:32:05.783Z,9.80
2023-03-16T00:32:16.268Z,10.10
2023-03-16T00:32:25.689Z,10.20
2023-03-16T00:32:35.694Z,10.50
2023-03-16T00:32:45.780Z,10.50
2023-03-16T00:32:55.804Z,14.90
2023-03-16T00:33:05.764Z,17.30
2023-03-16T00:33:15.653Z,20.20
2023-03-16T00:33:25.634Z,12.30
2023-03-16T00:33:35.641Z,11.00
2023-03-16T00:33:45.678Z,10.90
2023-03-16T00:33:56.284Z,10.90
2023-03-16T00:34:05.630Z,14.70
2023-03-16T00:34:15.724Z,12.60
2023-03-16T00:34:25.671Z,10.30
2023-03-16T00:34:35.639Z,10.30
2023-03-16T00:34:46.292Z,13.70
2023-03-16T00:34:55.760Z,15.90
2023-03-16T00:35:08.192Z,12.30
2023-03-16T00:35:15.646Z,10.10
2023-03-16T00:35:26.292Z,11.30
2023-03-16T00:35:35.670Z,10.80
2023-03-16T00:35:45.652Z,12.30
2023-03-16T00:35:55.633Z,10.50
2023-03-16T00:36:06.321Z,12.70
2023-03-16T00:36:15.619Z,9.60
2023-03-16T00:36:25.622Z,13.70
2023-03-16T00:36:35.647Z,10.10
2023-03-16T00:36:45.657Z,11.50
2023-03-16T00:36:55.691Z,10.20
2023-03-16T00:37:05.800Z,10.60
2023-03-16T00:37:15.683Z,10.10
2023-03-16T00:37:25.711Z,9.80
2023-03-16T00:37:35.772Z,9.70
2023-03-16T00:37:45.664Z,9.80
2023-03-16T00:37:55.628Z,9.60
2023-03-16T00:38:05.626Z,9.30
2023-03-16T00:38:15.630Z,9.20
2023-03-16T00:38:26.372Z,10.30
2023-03-16T00:38:35.630Z,13.10
2023-03-16T00:38:46.284Z,13.60
2023-03-16T00:38:55.613Z,14.70
2023-03-16T00:39:05.735Z,17.10
2023-03-16T00:39:15.611Z,20.10
2023-03-16T00:39:25.727Z,16.70
2023-03-16T00:39:35.647Z,11.00
2023-03-16T00:39:45.606Z,10.30
2023-03-16T00:39:55.628Z,11.40
2023-03-16T00:40:06.282Z,13.70
2023-03-16T00:40:15.610Z,14.40
2023-03-16T00:40:26.221Z,15.50
2023-03-16T00:40:35.646Z,11.00
2023-03-16T00:40:45.613Z,12.30
2023-03-16T00:40:55.634Z,13.40
2023-03-16T00:41:05.669Z,13.70
2023-03-16T00:41:15.615Z,13.60
2023-03-16T00:41:25.612Z,11.10
2023-03-16T00:41:35.645Z,13.90
2023-03-16T00:41:45.594Z,10.70
2023-03-16T00:41:55.632Z,9.90
2023-03-16T00:42:05.623Z,10.00
2023-03-16T00:42:15.602Z,11.00
2023-03-16T00:42:25.594Z,13.20
2023-03-16T00:42:35.592Z,14.00
2023-03-16T00:42:45.612Z,11.40
2023-03-16T00:42:55.696Z,10.50
2023-03-16T00:43:05.632Z,9.80
2023-03-16T00:43:15.739Z,9.60
2023-03-16T00:43:25.625Z,10.30
2023-03-16T00:43:35.674Z,9.80
2023-03-16T00:43:45.641Z,10.60
2023-03-16T00:43:55.600Z,10.10
2023-03-16T00:44:05.641Z,11.50
2023-03-16T00:44:16.373Z,12.80
2023-03-16T00:44:25.606Z,21.70
2023-03-16T00:44:35.782Z,19.90
2023-03-16T00:44:45.616Z,16.80
2023-03-16T00:44:55.647Z,11.50
2023-03-16T00:45:05.620Z,11.00
2023-03-16T00:45:15.661Z,10.90
2023-03-16T00:45:25.640Z,10.00
2023-03-16T00:45:35.636Z,10.10
2023-03-16T00:45:45.657Z,9.80
2023-03-16T00:45:55.603Z,11.50
2023-03-16T00:46:05.808Z,10.20
2023-03-16T00:46:15.739Z,10.70
2023-03-16T00:46:25.575Z,10.60
2023-03-16T00:46:35.614Z,13.80
2023-03-16T00:46:45.634Z,11.80
2023-03-16T00:46:55.578Z,11.00
2023-03-16T00:47:05.611Z,10.40
2023-03-16T00:47:15.621Z,10.90
2023-03-16T00:47:25.592Z,13.60
2023-03-16T00:47:35.616Z,10.50
2023-03-16T00:47:45.606Z,10.30
2023-03-16T00:47:55.585Z,9.80
2023-03-16T00:48:05.561Z,9.60
2023-03-16T00:48:15.648Z,13.80
2023-03-16T00:48:25.600Z,13.60
2023-03-16T00:48:35.636Z,13.30
2023-03-16T00:48:45.673Z,13.10
2023-03-16T00:48:55.589Z,13.20
2023-03-16T00:49:05.618Z,14.70
2023-03-16T00:49:15.573Z,17.10
2023-03-16T00:49:25.677Z,19.90
2023-03-16T00:49:35.579Z,15.70
2023-03-16T00:49:45.654Z,9.90
2023-03-16T00:49:55.592Z,9.80
2023-03-16T00:50:05.658Z,11.50
2023-03-16T00:50:15.569Z,17.60
2023-03-16T00:50:25.973Z,15.60
2023-03-16T00:50:35.602Z,12.60
2023-03-16T00:50:45.580Z,10.20
2023-03-16T00:50:55.694Z,10.80
2023-03-16T00:51:05.602Z,12.30
2023-03-16T00:51:15.587Z,13.60
2023-03-16T00:51:25.599Z,11.30
2023-03-16T00:51:35.666Z,11.10
2023-03-16T00:51:45.580Z,10.60
2023-03-16T00:51:55.581Z,10.10
2023-03-16T00:52:05.552Z,10.00
2023-03-16T00:52:15.590Z,11.00
2023-03-16T00:52:25.595Z,11.20
2023-03-16T00:52:35.567Z,9.90
2023-03-16T00:52:45.559Z,8.70
2023-03-16T00:52:55.565Z,8.40
2023-03-16T00:53:05.560Z,11.50
2023-03-16T00:53:15.572Z,19.70
2023-03-16T00:53:25.594Z,29.20
2023-03-16T00:53:35.627Z,20.50
2023-03-16T00:53:45.589Z,14.50
2023-03-16T00:53:56.287Z,9.80
2023-03-16T00:54:05.677Z,9.90
2023-03-16T00:54:15.566Z,12.90
2023-03-16T00:54:25.608Z,16.60
2023-03-16T00:54:35.562Z,14.50
2023-03-16T00:54:45.581Z,10.90
2023-03-16T00:54:55.626Z,10.90
2023-03-16T00:55:06.302Z,11.20
2023-03-16T00:55:15.554Z,16.20
2023-03-16T00:55:25.540Z,16.30
2023-03-16T00:55:36.280Z,14.20
2023-03-16T00:55:45.543Z,11.20
2023-03-16T00:55:55.566Z,10.90
2023-03-16T00:56:05.544Z,11.50
2023-03-16T00:56:15.552Z,18.30
2023-03-16T00:56:25.544Z,15.70
2023-03-16T00:56:35.552Z,17.20
2023-03-16T00:56:45.554Z,11.60
2023-03-16T00:56:55.547Z,10.90
2023-03-16T00:57:05.556Z,10.20
2023-03-16T00:57:15.561Z,9.30
2023-03-16T00:57:25.616Z,10.10
2023-03-16T00:57:35.560Z,14.80
2023-03-16T00:57:45.591Z,19.30
2023-03-16T00:57:55.545Z,18.80
2023-03-16T00:58:05.535Z,12.10
2023-03-16T00:58:15.532Z,11.40
2023-03-16T00:58:25.543Z,15.30
2023-03-16T00:58:35.534Z,11.50
2023-03-16T00:58:45.540Z,13.90
2023-03-16T00:58:55.545Z,12.60
2023-03-16T00:59:05.533Z,14.80
2023-03-16T00:59:15.628Z,11.80
2023-03-16T00:59:25.550Z,11.30
2023-03-16T00:59:35.524Z,11.60
2023-03-16T00:59:45.609Z,15.90
2023-03-16T00:59:56.317Z,16.60
2023-03-16T01:00:05.646Z,20.50
2023-03-16T01:00:15.635Z,15.80
2023-03-16T01:00:26.023Z,15.10
2023-03-16T01:00:35.551Z,13.40
2023-03-16T01:00:45.528Z,13.30
2023-03-16T01:00:56.302Z,13.40
2023-03-16T01:01:05.618Z,15.00
2023-03-16T01:01:15.663Z,14.90
2023-03-16T01:01:25.563Z,21.40
2023-03-16T01:01:35.544Z,20.10
2023-03-16T01:01:45.556Z,27.80
2023-03-16T01:01:55.568Z,19.10
2023-03-16T01:02:05.525Z,14.20
2023-03-16T01:02:15.525Z,13.80
2023-03-16T01:02:25.563Z,15.20
2023-03-16T01:02:35.514Z,14.70
2023-03-16T01:02:45.649Z,15.40
2023-03-16T01:02:55.639Z,14.80
2023-03-16T01:03:05.623Z,16.00
2023-03-16T01:03:15.556Z,15.90
2023-03-16T01:03:25.588Z,17.90
2023-03-16T01:03:35.645Z,14.30
2023-03-16T01:03:45.550Z,13.70
2023-03-16T01:03:55.527Z,15.20
2023-03-16T01:04:05.666Z,15.80
2023-03-16T01:04:15.556Z,19.70
2023-03-16T01:04:25.596Z,15.30
2023-03-16T01:04:35.536Z,14.70
2023-03-16T01:04:45.511Z,15.00
2023-03-16T01:04:55.511Z,15.60
2023-03-16T01:05:05.516Z,16.20
2023-03-16T01:05:15.580Z,16.80
2023-03-16T01:05:25.505Z,16.60
2023-03-16T01:05:35.517Z,19.00
2023-03-16T01:05:45.668Z,18.10
2023-03-16T01:05:55.507Z,24.70
2023-03-16T01:06:05.546Z,20.30
2023-03-16T01:06:15.497Z,15.70
2023-03-16T01:06:25.505Z,13.90
2023-03-16T01:06:35.537Z,15.90
2023-03-16T01:06:45.516Z,15.70
2023-03-16T01:06:55.510Z,15.70
2023-03-16T01:07:05.522Z,14.80
2023-03-16T01:07:15.532Z,15.20
2023-03-16T01:07:25.509Z,17.20
2023-03-16T01:07:35.501Z,17.00
2023-03-16T01:07:45.495Z,20.50
2023-03-16T01:07:55.507Z,18.10
2023-03-16T01:08:05.534Z,15.10
2023-03-16T01:08:15.495Z,15.80
2023-03-16T01:08:25.502Z,18.00
2023-03-16T01:08:35.531Z,15.90
2023-03-16T01:08:45.528Z,14.60
2023-03-16T01:08:55.517Z,14.00
2023-03-16T01:09:05.514Z,14.10
2023-03-16T01:09:15.490Z,15.10
2023-03-16T01:09:25.511Z,15.00
2023-03-16T01:09:35.639Z,15.60
2023-03-16T01:09:46.340Z,15.60
2023-03-16T01:09:55.526Z,16.80
2023-03-16T01:10:05.549Z,16.10
2023-03-16T01:10:16.296Z,16.30
2023-03-16T01:10:26.014Z,17.30
2023-03-16T01:10:35.535Z,17.30
2023-03-16T01:10:45.489Z,17.10
2023-03-16T01:10:56.273Z,15.90
2023-03-16T01:11:05.491Z,15.70
2023-03-16T01:11:15.492Z,15.30
2023-03-16T01:11:25.522Z,14.70
2023-03-16T01:11:35.579Z,15.40
2023-03-16T01:11:46.278Z,15.50
2023-03-16T01:11:55.522Z,15.90
2023-03-16T01:12:05.513Z,14.80
2023-03-16T01:12:15.498Z,16.00
2023-03-16T01:12:25.542Z,15.10
2023-03-16T01:12:35.480Z,15.70
2023-03-16T01:12:45.553Z,17.70
2023-03-16T01:12:55.523Z,26.00
2023-03-16T01:13:05.508Z,27.30
2023-03-16T01:13:15.503Z,22.80
2023-03-16T01:13:25.534Z,16.50
2023-03-16T01:13:35.470Z,15.30
2023-03-16T01:13:45.488Z,15.00
2023-03-16T01:13:55.504Z,15.80
2023-03-16T01:14:05.494Z,17.50
2023-03-16T01:14:15.506Z,19.80
2023-03-16T01:14:26.296Z,26.70
2023-03-16T01:14:35.494Z,23.70
2023-03-16T01:14:45.500Z,23.60
2023-03-16T01:14:55.466Z,16.20
2023-03-16T01:15:05.480Z,16.20
2023-03-16T01:15:15.476Z,16.70
2023-03-16T01:15:25.476Z,16.30
2023-03-16T01:15:35.513Z,15.40
2023-03-16T01:15:45.536Z,15.90
2023-03-16T01:15:55.477Z,15.90
2023-03-16T01:16:05.487Z,15.40
2023-03-16T01:16:15.605Z,14.30
2023-03-16T01:16:25.514Z,14.40
2023-03-16T01:16:35.638Z,15.00
2023-03-16T01:16:45.485Z,15.30
2023-03-16T01:16:55.471Z,15.40
2023-03-16T01:17:05.605Z,16.70
2023-03-16T01:17:15.488Z,22.20
2023-03-16T01:17:25.466Z,17.20
2023-03-16T01:17:35.518Z,17.00
2023-03-16T01:17:45.461Z,15.90
2023-03-16T01:17:55.461Z,17.50
2023-03-16T01:18:05.495Z,17.60
2023-03-16T01:18:15.507Z,20.10
2023-03-16T01:18:26.297Z,16.00
2023-03-16T01:18:35.506Z,16.00
2023-03-16T01:18:45.463Z,16.70
2023-03-16T01:18:55.477Z,23.50
2023-03-16T01:19:05.515Z,23.70
2023-03-16T01:19:15.513Z,18.10
2023-03-16T01:19:25.476Z,16.80
2023-03-16T01:19:35.667Z,18.90
2023-03-16T01:19:45.462Z,17.00
2023-03-16T01:19:55.497Z,16.90
2023-03-16T01:20:05.521Z,16.40
2023-03-16T01:20:15.464Z,21.10
2023-03-16T01:20:25.752Z,18.30
2023-03-16T01:20:35.448Z,16.90
2023-03-16T01:20:45.867Z,17.10
2023-03-16T01:20:55.613Z,16.60
2023-03-16T01:21:05.445Z,19.80
2023-03-16T01:21:15.463Z,18.30
2023-03-16T01:21:25.484Z,22.30
2023-03-16T01:21:35.443Z,16.60
2023-03-16T01:21:45.476Z,15.90
2023-03-16T01:21:55.493Z,15.90
2023-03-16T01:22:05.555Z,15.70
2023-03-16T01:22:15.472Z,16.50
2023-03-16T01:22:25.491Z,16.40
2023-03-16T01:22:35.458Z,16.10
2023-03-16T01:22:45.482Z,15.90
2023-03-16T01:22:55.434Z,16.00
2023-03-16T01:23:05.434Z,16.50
2023-03-16T01:23:15.461Z,17.80
2023-03-16T01:23:25.499Z,19.70
2023-03-16T01:23:35.443Z,16.80
2023-03-16T01:23:45.447Z,15.70
2023-03-16T01:23:55.426Z,15.60
2023-03-16T01:24:05.456Z,16.40
2023-03-16T01:24:15.457Z,16.30
2023-03-16T01:24:25.434Z,16.60
2023-03-16T01:24:35.448Z,16.60
2023-03-16T01:24:45.488Z,17.10
2023-03-16T01:24:55.430Z,17.00
2023-03-16T01:25:06.262Z,17.70
2023-03-16T01:25:15.465Z,17.20
2023-03-16T01:25:25.438Z,17.00
2023-03-16T01:25:35.433Z,17.30
2023-03-16T01:25:45.455Z,18.10
2023-03-16T01:25:55.533Z,18.00
2023-03-16T01:26:05.456Z,17.60
2023-03-16T01:26:15.431Z,17.50
2023-03-16T01:26:25.429Z,17.60
2023-03-16T01:26:36.302Z,17.50
2023-03-16T01:26:45.422Z,17.10
2023-03-16T01:26:56.345Z,17.40
2023-03-16T01:27:05.514Z,16.00
2023-03-16T01:27:15.422Z,16.80
2023-03-16T01:27:25.435Z,16.80
2023-03-16T01:27:35.469Z,18.30
2023-03-16T01:27:45.511Z,17.60
2023-03-16T01:27:55.441Z,16.90
2023-03-16T01:28:05.437Z,16.70
2023-03-16T01:28:15.426Z,16.30
2023-03-16T01:28:26.280Z,16.90
2023-03-16T01:28:35.481Z,16.30
2023-03-16T01:28:45.446Z,16.40
2023-03-16T01:28:55.438Z,16.50
2023-03-16T01:29:05.487Z,17.50
2023-03-16T01:29:16.301Z,18.60
2023-03-16T01:29:25.426Z,19.40
2023-03-16T01:29:35.552Z,18.50
2023-03-16T01:29:45.420Z,18.40
2023-03-16T01:29:55.406Z,18.30
2023-03-16T01:30:05.413Z,18.40
2023-03-16T01:30:15.429Z,17.70
2023-03-16T01:30:25.885Z,17.70
2023-03-16T01:30:35.445Z,17.30
2023-03-16T01:30:45.450Z,17.20
2023-03-16T01:30:55.538Z,16.50
2023-03-16T01:31:06.022Z,17.00
2023-03-16T01:31:15.571Z,17.90
2023-03-16T01:31:25.454Z,18.70
2023-03-16T01:31:35.424Z,17.70
2023-03-16T01:31:45.420Z,17.80
2023-03-16T01:31:56.288Z,18.50
2023-03-16T01:32:05.403Z,22.20
2023-03-16T01:32:15.470Z,18.40
2023-03-16T01:32:25.477Z,17.70
2023-03-16T01:32:35.450Z,17.60
2023-03-16T01:32:45.542Z,18.00
2023-03-16T01:32:55.533Z,17.30
2023-03-16T01:33:06.428Z,16.50
2023-03-16T01:33:15.495Z,16.00
2023-03-16T01:33:25.461Z,16.20
2023-03-16T01:33:35.406Z,16.60
2023-03-16T01:33:45.455Z,16.30
2023-03-16T01:33:55.398Z,16.00
2023-03-16T01:34:05.404Z,15.40
2023-03-16T01:34:15.442Z,15.70
2023-03-16T01:34:25.394Z,16.10
2023-03-16T01:34:36.276Z,16.90
2023-03-16T01:34:45.445Z,17.50
2023-03-16T01:34:55.407Z,17.40
2023-03-16T01:35:05.464Z,17.00
2023-03-16T01:35:15.467Z,16.60
2023-03-16T01:35:25.430Z,16.90
2023-03-16T01:35:35.470Z,17.40
2023-03-16T01:35:45.425Z,17.60
2023-03-16T01:35:55.580Z,18.00
2023-03-16T01:36:06.392Z,18.30
2023-03-16T01:36:15.485Z,18.50
2023-03-16T01:36:25.408Z,18.90
2023-03-16T01:36:35.440Z,18.00
2023-03-16T01:36:45.387Z,17.80
2023-03-16T01:36:55.411Z,17.70
2023-03-16T01:37:05.442Z,18.60
2023-03-16T01:37:15.411Z,19.50
2023-03-16T01:37:25.460Z,17.60
2023-03-16T01:37:35.555Z,16.90
2023-03-16T01:37:45.412Z,16.30
2023-03-16T01:37:55.396Z,17.30
2023-03-16T01:38:05.424Z,17.80
2023-03-16T01:38:16.285Z,17.30
2023-03-16T01:38:25.393Z,17.70
2023-03-16T01:38:35.377Z,18.00
2023-03-16T01:38:45.390Z,19.40
2023-03-16T01:38:55.370Z,20.20
2023-03-16T01:39:05.463Z,20.90
2023-03-16T01:39:15.394Z,19.00
2023-03-16T01:39:25.447Z,17.60
2023-03-16T01:39:35.366Z,17.20
2023-03-16T01:39:45.385Z,17.90
2023-03-16T01:39:55.405Z,18.70
2023-03-16T01:40:05.368Z,19.10
2023-03-16T01:40:15.381Z,18.60
2023-03-16T01:40:25.428Z,17.80
2023-03-16T01:40:35.370Z,16.70
2023-03-16T01:40:45.403Z,15.80
2023-03-16T01:40:55.384Z,16.00
2023-03-16T01:41:05.423Z,16.50
2023-03-16T01:41:15.401Z,17.40
2023-03-16T01:41:25.462Z,17.10
2023-03-16T01:41:35.484Z,17.60
2023-03-16T01:41:45.401Z,17.40
2023-03-16T01:41:55.392Z,18.70
2023-03-16T01:42:06.294Z,18.90
2023-03-16T01:42:15.406Z,19.60
2023-03-16T01:42:25.368Z,18.30
2023-03-16T01:42:35.363Z,17.70
2023-03-16T01:42:45.367Z,17.90
2023-03-16T01:42:55.387Z,17.40
2023-03-16T01:43:05.377Z,17.30
2023-03-16T01:43:16.289Z,17.10
2023-03-16T01:43:25.366Z,17.40
2023-03-16T01:43:35.414Z,17.50
2023-03-16T01:43:45.475Z,24.30
2023-03-16T01:43:55.353Z,22.70
2023-03-16T01:44:05.378Z,20.30
2023-03-16T01:44:15.416Z,17.20
2023-03-16T01:44:25.363Z,16.80
2023-03-16T01:44:35.371Z,17.20
2023-03-16T01:44:45.432Z,17.90
2023-03-16T01:44:55.375Z,20.80
2023-03-16T01:45:05.348Z,18.60
2023-03-16T01:45:15.350Z,18.20
2023-03-16T01:45:26.303Z,17.50
2023-03-16T01:45:38.279Z,17.70
2023-03-16T01:45:45.517Z,17.80
2023-03-16T01:45:55.375Z,18.00
2023-03-16T01:46:05.548Z,17.50
2023-03-16T01:46:15.440Z,17.20
2023-03-16T01:46:25.455Z,17.10
2023-03-16T01:46:35.530Z,16.20
2023-03-16T01:46:45.364Z,16.30
2023-03-16T01:46:56.282Z,16.70
2023-03-16T01:47:05.389Z,17.40
2023-03-16T01:47:16.284Z,17.60
2023-03-16T01:47:25.370Z,16.80
2023-03-16T01:47:35.399Z,17.20
2023-03-16T01:47:46.277Z,18.00
2023-03-16T01:47:55.358Z,18.10
2023-03-16T01:48:05.350Z,18.30
2023-03-16T01:48:15.354Z,17.60
2023-03-16T01:48:25.363Z,17.00
2023-03-16T01:48:35.340Z,16.60
2023-03-16T01:48:45.338Z,15.80
2023-03-16T01:48:55.337Z,16.20
2023-03-16T01:49:05.345Z,16.20
2023-03-16T01:49:15.356Z,17.20
2023-03-16T01:49:25.363Z,18.10
2023-03-16T01:49:35.330Z,23.20
2023-03-16T01:49:45.363Z,24.90
2023-03-16T01:49:55.328Z,22.80
2023-03-16T01:50:05.347Z,23.50
2023-03-16T01:50:16.321Z,19.00
2023-03-16T01:50:25.728Z,18.30
2023-03-16T01:50:35.342Z,17.70
2023-03-16T01:50:45.352Z,18.00
2023-03-16T01:50:55.340Z,20.50
2023-03-16T01:51:06.297Z,19.40
2023-03-16T01:51:15.358Z,20.30
2023-03-16T01:51:25.326Z,23.00
2023-03-16T01:51:35.362Z,19.60
2023-03-16T01:51:45.384Z,17.00
2023-03-16T01:51:56.406Z,16.40
2023-03-16T01:52:05.331Z,16.10
2023-03-16T01:52:15.379Z,16.60
2023-03-16T01:52:25.317Z,16.70
2023-03-16T01:52:35.343Z,17.00
2023-03-16T01:52:45.324Z,16.40
2023-03-16T01:52:56.286Z,17.60
2023-03-16T01:53:05.337Z,17.10
2023-03-16T01:53:15.408Z,17.50
2023-03-16T01:53:25.314Z,15.90
2023-03-16T01:53:35.341Z,16.50
2023-03-16T01:53:45.414Z,17.00
2023-03-16T01:53:56.340Z,18.10
2023-03-16T01:54:05.552Z,18.00
2023-03-16T01:54:15.409Z,17.80
2023-03-16T01:54:25.328Z,21.40
2023-03-16T01:54:35.342Z,22.10
2023-03-16T01:54:45.374Z,17.30
2023-03-16T01:54:55.333Z,17.00
2023-03-16T01:55:05.309Z,17.40
2023-03-16T01:55:15.356Z,18.10
2023-03-16T01:55:25.336Z,19.20
2023-03-16T01:55:35.311Z,18.80
2023-03-16T01:55:45.413Z,18.10
2023-03-16T01:55:55.455Z,16.30
2023-03-16T01:56:06.371Z,15.80
2023-03-16T01:56:15.309Z,16.20
2023-03-16T01:56:26.336Z,15.80
2023-03-16T01:56:35.369Z,16.00
2023-03-16T01:56:45.303Z,16.10
2023-03-16T01:56:55.448Z,16.90
2023-03-16T01:57:05.348Z,16.80
2023-03-16T01:57:15.327Z,17.80
2023-03-16T01:57:25.322Z,17.10
2023-03-16T01:57:35.302Z,18.30
2023-03-16T01:57:45.306Z,17.60
2023-03-16T01:57:55.326Z,19.30
2023-03-16T01:58:05.301Z,18.30
2023-03-16T01:58:15.488Z,17.90
2023-03-16T01:58:25.294Z,17.20
2023-03-16T01:58:35.395Z,17.90
2023-03-16T01:58:45.352Z,18.30
2023-03-16T01:58:55.336Z,17.20
2023-03-16T01:59:05.301Z,16.30
2023-03-16T01:59:15.323Z,15.40
2023-03-16T01:59:25.358Z,16.70
2023-03-16T01:59:36.311Z,18.00
2023-03-16T01:59:45.312Z,20.90
2023-03-16T01:59:55.339Z,18.30
2023-03-16T02:00:06.321Z,17.00
2023-03-16T02:00:16.344Z,16.80
2023-03-16T02:00:25.470Z,17.00
2023-03-16T02:00:35.303Z,16.40
2023-03-16T02:00:45.301Z,17.20
2023-03-16T02:00:55.338Z,17.30
2023-03-16T02:01:06.339Z,17.40
2023-03-16T02:01:15.447Z,17.00
2023-03-16T02:01:25.394Z,16.90
2023-03-16T02:01:35.335Z,17.50
2023-03-16T02:01:45.408Z,17.70
2023-03-16T02:01:55.400Z,17.20
2023-03-16T02:02:05.411Z,16.50
2023-03-16T02:02:15.344Z,15.60
2023-03-16T02:02:25.411Z,15.60
2023-03-16T02:02:35.304Z,17.10
2023-03-16T02:02:45.289Z,17.20
2023-03-16T02:02:55.296Z,17.70
2023-03-16T02:03:05.312Z,16.80
2023-03-16T02:03:15.375Z,17.20
2023-03-16T02:03:25.292Z,17.20
2023-03-16T02:03:35.306Z,16.60
2023-03-16T02:03:45.790Z,16.20
2023-03-16T02:03:55.444Z,16.10
2023-03-16T02:04:05.377Z,16.80
2023-03-16T02:04:15.424Z,17.60
2023-03-16T02:04:25.337Z,16.90
2023-03-16T02:04:35.522Z,16.50
2023-03-16T02:04:45.377Z,15.70
2023-03-16T02:04:55.320Z,16.40
2023-03-16T02:05:05.268Z,16.80
2023-03-16T02:05:15.292Z,16.80
2023-03-16T02:05:25.301Z,16.10
2023-03-16T02:05:35.312Z,16.90
2023-03-16T02:05:45.356Z,16.60
2023-03-16T02:05:55.276Z,17.60
2023-03-16T02:06:05.384Z,16.10
2023-03-16T02:06:15.307Z,17.60
2023-03-16T02:06:25.304Z,17.00
2023-03-16T02:06:35.384Z,16.50
2023-03-16T02:06:45.289Z,16.80
2023-03-16T02:06:55.408Z,16.50
2023-03-16T02:07:05.311Z,16.00
2023-03-16T02:07:15.350Z,16.20
2023-03-16T02:07:25.311Z,16.20
2023-03-16T02:07:35.261Z,16.90
2023-03-16T02:07:45.800Z,16.90
2023-03-16T02:07:55.822Z,16.90
2023-03-16T02:08:05.376Z,16.00
2023-03-16T02:08:15.273Z,17.10
2023-03-16T02:08:25.296Z,16.70
2023-03-16T02:08:35.792Z,17.50
2023-03-16T02:08:45.395Z,16.30
2023-03-16T02:08:55.366Z,17.80